Time;durP1;ratioP1;P1;durP2;ratioP2;P2;SDS_P1;SDS_P2;PMS_P1;PMS_P2;Temp;Humidity;BMP_temperature;BMP_pressure;BME280_temperature;BME280_humidity;BME280_pressure;Samples;Min_cycle;Max_cycle;Signal;HPM_P1;HPM_P2
2021/03/17 00:02:07;;;;;;;;;;;;;;;2.82;71.14;99029.73;1702501;83;21473;-70
2021/03/17 00:04:54;;;;;;;;;;;;;;;2.84;71.15;99029.02;1700416;83;20248;-71
2021/03/17 00:07:41;;;;;;;;;;;;;;;2.91;71.03;99034.33;1618553;88;20257;-67
2021/03/17 00:10:32;;;;;;;;;;;;;;;2.95;70.89;99025.78;1618522;88;20656;-67
2021/03/17 00:13:22;;;;;;;;;;;;;;;3.01;70.67;99022.05;1618861;88;20549;-67
2021/03/17 00:15:58;;;;;;;;;;;;;;;3.03;70.49;99018.67;1837651;77;20189;-68
2021/03/17 00:18:46;;;;;;;;;;;;;;;2.92;70.57;99010.83;1808097;78;20206;-68
2021/03/17 00:21:32;;;;;;;;;;;;;;;2.89;70.66;99007.26;1807087;78;21333;-69
2021/03/17 00:24:18;;;;;;;;;;;;;;;2.85;70.72;99007.34;1804527;78;20506;-68
2021/03/17 00:27:05;;;;;;;;;;;;;;;2.74;70.96;99012.21;1808158;78;20187;-67
2021/03/17 00:29:51;;;;;;;;;;;;;;;2.59;71.43;99008.90;1804984;78;20111;-66
2021/03/17 00:32:38;;;;;;;;;;;;;;;2.55;71.68;99012.98;1803428;78;20184;-68
2021/03/17 00:35:25;;;;;;;;;;;;;;;2.50;71.95;99020.68;1801212;78;22407;-68
2021/03/17 00:38:11;;;;;;;;;;;;;;;2.41;72.16;99018.20;1804479;78;20172;-67
2021/03/17 00:40:57;;;;;;;;;;;;;;;2.38;72.34;99012.50;1807929;78;20111;-67
2021/03/17 00:43:43;;;;;;;;;;;;;;;2.34;72.65;99009.45;1804302;77;20279;-66
2021/03/17 00:46:29;;;;;;;;;;;;;;;2.36;72.68;99003.96;1800441;78;20603;-67
2021/03/17 00:48:59;;;;;;;;;;;;;;;2.34;72.75;98993.58;1803159;78;21196;-66
2021/03/17 00:51:28;;;;;;;;;;;;;;;2.35;72.73;98999.16;1710876;83;20258;-68
2021/03/17 00:54:14;;;;;;;;;;;;;;;2.34;72.87;99002.00;1712903;83;20225;-68
2021/03/17 00:56:52;;;;;;;;;;;;;;;2.39;72.87;98987.69;1832149;77;20198;-68
2021/03/17 00:59:20;;;;;;;;;;;;;;;2.32;72.85;98978.39;1803878;79;20219;-68
2021/03/17 01:01:47;;;;;;;;;;;;;;;2.27;72.99;98985.61;1775549;79;21208;-67
2021/03/17 01:04:17;;;;;;;;;;;;;;;2.24;73.12;98982.03;1816772;79;20157;-66
2021/03/17 01:06:45;;;;;;;;;;;;;;;2.22;73.32;98981.91;1783706;79;20449;-69
2021/03/17 01:09:13;;;;;;;;;;;;;;;2.21;73.38;98978.95;1818340;79;20148;-69
2021/03/17 01:11:42;;;;;;;;;;;;;;;2.22;73.37;98989.36;1818237;79;20204;-70
2021/03/17 01:14:11;;;;;;;;;;;;;;;2.25;73.42;98981.03;1818579;79;22130;-70
2021/03/17 01:16:39;;;;;;;;;;;;;;;2.31;73.32;98982.05;1818461;78;20109;-69
2021/03/17 01:19:06;;;;;;;;;;;;;;;2.33;73.30;98989.81;1818754;78;20200;-67
2021/03/17 01:21:34;;;;;;;;;;;;;;;2.32;73.24;98979.72;1818502;78;20343;-69
2021/03/17 01:24:02;;;;;;;;;;;;;;;2.29;73.30;98982.77;1818304;79;20331;-68
2021/03/17 01:26:30;;;;;;;;;;;;;;;2.27;73.40;98977.67;1818355;78;21195;-71
2021/03/17 01:28:57;;;;;;;;;;;;;;;2.26;73.52;98972.06;1818740;78;20148;-72
2021/03/17 01:31:25;;;;;;;;;;;;;;;2.26;73.58;98981.84;1813246;79;20574;-71
2021/03/17 01:33:53;;;;;;;;;;;;;;;2.21;73.71;98983.75;1805077;79;20220;-71
2021/03/17 01:36:21;;;;;;;;;;;;;;;2.19;73.81;98987.08;1805054;79;20499;-72
2021/03/17 01:38:49;;;;;;;;;;;;;;;2.19;73.97;98983.64;1805147;79;22117;-71
2021/03/17 01:41:17;;;;;;;;;;;;;;;2.18;74.05;98986.80;1804975;79;20137;-72
2021/03/17 01:43:44;;;;;;;;;;;;;;;2.20;74.07;98975.50;1805112;79;20264;-70
2021/03/17 01:46:12;;;;;;;;;;;;;;;2.22;74.05;98983.23;1805388;79;20235;-71
2021/03/17 01:48:41;;;;;;;;;;;;;;;2.20;74.08;98982.11;1774133;79;20129;-72
2021/03/17 01:51:09;;;;;;;;;;;;;;;2.25;74.10;98989.45;1804992;79;21369;-74
2021/03/17 01:53:44;;;;;;;;;;;;;;;2.34;74.01;98980.84;1828352;77;20262;-73
2021/03/17 01:56:12;;;;;;;;;;;;;;;2.27;73.94;98978.99;1818844;78;20226;-74
2021/03/17 01:58:40;;;;;;;;;;;;;;;2.29;73.98;98970.86;1785475;79;21197;-73
2021/03/17 02:01:09;;;;;;;;;;;;;;;2.31;74.01;98969.34;1818910;79;20239;-73
2021/03/17 02:03:37;;;;;;;;;;;;;;;2.36;73.95;98965.61;1819222;79;20192;-73
2021/03/17 02:06:05;;;;;;;;;;;;;;;2.44;73.83;98957.47;1819136;79;20132;-74
2021/03/17 02:08:36;;;;;;;;;;;;;;;2.51;73.62;98964.92;1818836;79;20522;-74
2021/03/17 02:11:04;;;;;;;;;;;;;;;2.54;73.53;98949.97;1818972;79;21190;-74
2021/03/17 02:13:53;;;;;;;;;;;;;;;2.60;73.53;98951.80;1818723;79;20514;-74
2021/03/17 02:16:34;;;;;;;;;;;;;;;2.72;73.22;98949.90;1815721;79;20172;-72
2021/03/17 02:19:25;;;;;;;;;;;;;;;2.79;72.84;98952.05;1816944;79;20658;-71
2021/03/17 02:22:15;;;;;;;;;;;;;;;2.80;72.59;98947.08;1816540;79;20161;-72
2021/03/17 02:24:52;;;;;;;;;;;;;;;2.77;72.56;98942.98;1818947;79;20129;-71
2021/03/17 02:27:49;;;;;;;;;;;;;;;2.73;72.55;98939.11;1724934;83;20354;-69
2021/03/17 02:30:49;;;;;;;;;;;;;;;2.67;72.69;98949.19;1725152;83;20276;-70
2021/03/17 02:33:45;;;;;;;;;;;;;;;2.61;72.92;98944.19;1725341;83;20564;-70
2021/03/17 02:36:35;;;;;;;;;;;;;;;2.70;72.97;98942.16;1832084;77;20252;-72
2021/03/17 02:39:13;;;;;;;;;;;;;;;2.67;73.00;98935.95;1802182;79;20341;-67
2021/03/17 02:41:44;;;;;;;;;;;;;;;2.59;73.09;98948.87;1777237;79;21425;-67
2021/03/17 02:44:14;;;;;;;;;;;;;;;2.53;73.29;98951.00;1800655;78;20616;-67
2021/03/17 02:46:42;;;;;;;;;;;;;;;2.51;73.48;98940.30;1801050;79;20587;-66
2021/03/17 02:49:24;;;;;;;;;;;;;;;2.51;73.62;98949.56;1781454;79;20159;-66
2021/03/17 02:51:55;;;;;;;;;;;;;;;2.48;73.72;98938.06;1803474;79;20246;-70
2021/03/17 02:54:23;;;;;;;;;;;;;;;2.49;73.80;98939.67;1799705;78;21153;-69
2021/03/17 02:57:03;;;;;;;;;;;;;;;2.47;73.91;98950.97;1800643;79;20151;-67
2021/03/17 02:59:31;;;;;;;;;;;;;;;2.46;73.97;98944.88;1807916;79;20204;-69
2021/03/17 03:02:00;;;;;;;;;;;;;;;2.47;74.13;98945.69;1798610;79;20151;-69
2021/03/17 03:04:29;;;;;;;;;;;;;;;2.45;74.11;98951.98;1792940;79;20139;-70
2021/03/17 03:06:57;;;;;;;;;;;;;;;2.47;74.11;98958.39;1801917;79;21203;-67
2021/03/17 03:09:26;;;;;;;;;;;;;;;2.48;74.08;98956.06;1800550;79;20736;-67
2021/03/17 03:11:55;;;;;;;;;;;;;;;2.47;74.11;98940.39;1802013;79;20502;-67
2021/03/17 03:14:24;;;;;;;;;;;;;;;2.46;74.23;98946.20;1801537;79;20223;-66
2021/03/17 03:16:56;;;;;;;;;;;;;;;2.42;74.31;98944.45;1801855;79;20271;-66
2021/03/17 03:19:26;;;;;;;;;;;;;;;2.42;74.39;98934.38;1766761;79;22113;-68
2021/03/17 03:21:54;;;;;;;;;;;;;;;2.43;74.50;98932.05;1796854;79;20546;-67
2021/03/17 03:24:22;;;;;;;;;;;;;;;2.45;74.47;98935.30;1801861;79;20299;-66
2021/03/17 03:26:52;;;;;;;;;;;;;;;2.43;74.46;98934.70;1800288;79;20236;-66
2021/03/17 03:29:19;;;;;;;;;;;;;;;2.43;74.41;98936.83;1802364;79;20111;-68
2021/03/17 03:31:55;;;;;;;;;;;;;;;2.45;74.60;98934.78;1827101;77;20253;-68
2021/03/17 03:34:24;;;;;;;;;;;;;;;2.40;74.60;98938.55;1818872;79;20137;-70
2021/03/17 03:36:52;;;;;;;;;;;;;;;2.40;74.65;98933.27;1818744;79;21194;-68
2021/03/17 03:39:19;;;;;;;;;;;;;;;2.40;74.63;98931.94;1818746;79;20109;-68
2021/03/17 03:41:47;;;;;;;;;;;;;;;2.41;74.71;98933.55;1725357;83;20537;-69
2021/03/17 03:44:15;;;;;;;;;;;;;;;2.42;74.77;98922.48;1724112;83;20143;-66
2021/03/17 03:46:43;;;;;;;;;;;;;;;2.47;74.72;98927.97;1724966;83;20155;-65
2021/03/17 03:49:20;;;;;;;;;;;;;;;2.60;74.55;98925.34;1826796;77;20346;-67
2021/03/17 03:51:57;;;;;;;;;;;;;;;2.58;74.37;98930.03;1807850;79;20174;-68
2021/03/17 03:54:34;;;;;;;;;;;;;;;2.59;74.27;98919.77;1793132;79;21159;-68
2021/03/17 03:57:16;;;;;;;;;;;;;;;2.58;74.26;98916.80;1765635;79;20581;-67
2021/03/17 03:59:47;;;;;;;;;;;;;;;2.59;74.25;98916.28;1802600;79;20148;-68
2021/03/17 04:02:27;;;;;;;;;;;;;;;2.59;74.21;98915.80;1794529;79;20112;-70
2021/03/17 04:04:56;;;;;;;;;;;;;;;2.59;74.23;98914.48;1797273;79;20141;-69
2021/03/17 04:07:24;;;;;;;;;;;;;;;2.59;74.27;98913.16;1801885;79;21013;-69
2021/03/17 04:09:52;;;;;;;;;;;;;;;2.61;74.23;98919.05;1802379;79;20199;-68
2021/03/17 04:12:21;;;;;;;;;;;;;;;2.62;74.23;98922.50;1799121;79;20240;-68
2021/03/17 04:14:54;;;;;;;;;;;;;;;2.60;74.28;98925.34;1799054;78;20112;-69
2021/03/17 04:17:27;;;;;;;;;;;;;;;2.59;74.37;98915.80;1802430;79;20219;-72
2021/03/17 04:19:58;;;;;;;;;;;;;;;2.61;74.47;98925.66;1799135;79;21366;-69
2021/03/17 04:22:26;;;;;;;;;;;;;;;2.59;74.54;98918.94;1801757;79;20129;-71
2021/03/17 04:24:54;;;;;;;;;;;;;;;2.54;74.74;98918.22;1801838;79;20236;-71
2021/03/17 04:27:22;;;;;;;;;;;;;;;2.56;74.86;98915.38;1801915;79;20303;-70
2021/03/17 04:29:50;;;;;;;;;;;;;;;2.61;74.88;98913.75;1794386;79;20127;-70
2021/03/17 04:32:17;;;;;;;;;;;;;;;2.67;74.84;98915.30;1789944;79;22248;-70
2021/03/17 04:34:47;;;;;;;;;;;;;;;2.69;74.82;98918.03;1787508;79;20138;-70
2021/03/17 04:37:15;;;;;;;;;;;;;;;2.70;74.86;98910.41;1782478;79;20219;-71
2021/03/17 04:39:44;;;;;;;;;;;;;;;2.76;74.85;98914.08;1786693;79;20116;-71
2021/03/17 04:42:12;;;;;;;;;;;;;;;2.84;74.80;98915.70;1769820;79;20283;-72
2021/03/17 04:44:40;;;;;;;;;;;;;;;2.93;74.63;98914.48;1788184;79;21724;-71
2021/03/17 04:47:11;;;;;;;;;;;;;;;2.98;74.43;98916.02;1786871;79;20132;-71
2021/03/17 04:49:40;;;;;;;;;;;;;;;2.98;74.44;98919.99;1789014;79;20193;-72
2021/03/17 04:52:13;;;;;;;;;;;;;;;3.01;74.37;98914.28;1787778;79;20252;-72
2021/03/17 04:54:41;;;;;;;;;;;;;;;3.02;74.30;98907.98;1785554;79;20213;-72
2021/03/17 04:57:18;;;;;;;;;;;;;;;2.96;74.29;98908.80;1787826;79;22124;-72
2021/03/17 04:59:47;;;;;;;;;;;;;;;2.91;74.50;98928.44;1786299;79;20141;-72
2021/03/17 05:02:17;;;;;;;;;;;;;;;2.88;74.61;98922.23;1783952;79;20226;-72
2021/03/17 05:04:46;;;;;;;;;;;;;;;2.87;74.69;98920.59;1769469;79;20171;-72
2021/03/17 05:07:13;;;;;;;;;;;;;;;2.87;74.74;98923.23;1786974;79;20559;-73
2021/03/17 05:09:41;;;;;;;;;;;;;;;2.82;74.87;98927.83;1786727;79;21223;-73
2021/03/17 05:12:10;;;;;;;;;;;;;;;2.77;75.04;98927.11;1786547;79;20133;-72
2021/03/17 05:14:38;;;;;;;;;;;;;;;2.75;75.17;98929.16;1789346;79;20180;-73
2021/03/17 05:17:06;;;;;;;;;;;;;;;2.77;75.35;98932.41;1786724;79;20167;-73
2021/03/17 05:19:34;;;;;;;;;;;;;;;2.78;75.34;98936.69;1784505;79;20161;-74
2021/03/17 05:22:02;;;;;;;;;;;;;;;2.77;75.42;98932.92;1683908;83;21226;-72
2021/03/17 05:24:38;;;;;;;;;;;;;;;2.79;75.85;98933.52;1828505;77;20647;-71
2021/03/17 05:27:11;;;;;;;;;;;;;;;2.69;76.02;98937.08;1802280;79;20196;-71
2021/03/17 06:51:58;;;;;;;;;;;;;;;2.61;78.08;98939.41;1685248;78;20388;-71
2021/03/17 06:54:25;;;;;;;;;;;;;;;2.67;78.11;98936.47;1669143;83;20206;-71
2021/03/17 06:56:52;;;;;;;;;;;;;;;2.74;78.01;98939.42;1674103;83;20220;-71
2021/03/17 06:59:20;;;;;;;;;;;;;;;2.76;77.63;98941.87;1654484;84;20298;-71
2021/03/17 07:01:49;;;;;;;;;;;;;;;2.74;77.67;98938.59;1652405;85;22729;-69
2021/03/17 07:04:21;;;;;;;;;;;;;;;2.74;77.50;98940.75;1637786;85;20256;-70
2021/03/17 07:06:51;;;;;;;;;;;;;;;2.70;77.49;98938.19;1614795;87;20239;-69
2021/03/17 07:09:27;;;;;;;;;;;;;;;2.67;77.60;98935.15;1612271;88;20337;-69
2021/03/17 07:12:06;;;;;;;;;;;;;;;2.66;77.60;98942.25;1614056;88;20279;-70
2021/03/17 07:14:41;;;;;;;;;;;;;;;2.62;77.58;98948.95;1615975;87;22310;-69
2021/03/17 07:17:30;;;;;;;;;;;;;;;2.52;77.63;98947.20;1615687;88;20298;-70
2021/03/17 07:19:58;;;;;;;;;;;;;;;2.40;77.87;98939.88;1618391;86;20324;-69
2021/03/17 07:22:26;;;;;;;;;;;;;;;2.37;78.24;98946.05;1620199;86;20220;-69
2021/03/17 07:24:54;;;;;;;;;;;;;;;2.35;78.36;98940.97;1619366;86;20298;-68
2021/03/17 07:27:27;;;;;;;;;;;;;;;2.32;78.18;98939.23;1620081;86;21229;-70
2021/03/17 07:30:06;;;;;;;;;;;;;;;2.25;78.56;98937.88;1619608;88;20225;-70
2021/03/17 07:32:58;;;;;;;;;;;;;;;2.22;78.63;98940.92;1624226;86;20268;-69
2021/03/17 07:35:29;;;;;;;;;;;;;;;2.28;78.50;98945.42;1622675;88;20253;-68
2021/03/17 07:38:13;;;;;;;;;;;;;;;2.19;78.66;98943.97;1622900;88;20228;-69
2021/03/17 07:40:45;;;;;;;;;;;;;;;2.08;78.98;98940.88;1620512;87;21385;-68
2021/03/17 07:43:14;;;;;;;;;;;;;;;2.02;79.29;98950.93;1621981;86;20229;-68
2021/03/17 07:45:42;;;;;;;;;;;;;;;2.04;79.29;98954.18;1618231;88;20249;-68
2021/03/17 07:48:11;;;;;;;;;;;;;;;2.06;79.29;98944.24;1626018;86;20233;-66
2021/03/17 07:50:41;;;;;;;;;;;;;;;2.08;79.33;98946.17;1623837;87;20347;-67
2021/03/17 07:53:26;;;;;;;;;;;;;;;2.08;78.96;98954.62;1647773;85;21376;-66
2021/03/17 07:55:56;;;;;;;;;;;;;;;2.02;78.91;98938.23;1647230;86;20262;-66
2021/03/17 07:58:24;;;;;;;;;;;;;;;2.00;79.16;98946.84;1649659;86;20236;-65
2021/03/17 08:00:52;;;;;;;;;;;;;;;1.98;79.34;98947.05;1648371;85;20302;-66
2021/03/17 08:03:20;;;;;;;;;;;;;;;2.00;79.23;98947.65;1651402;86;20311;-67
2021/03/17 08:05:48;;;;;;;;;;;;;;;2.00;79.21;98952.94;1647790;86;22355;-68
2021/03/17 08:08:16;;;;;;;;;;;;;;;2.00;79.47;98956.91;1647768;86;20152;-67
2021/03/17 08:10:45;;;;;;;;;;;;;;;2.07;79.36;98948.50;1646193;86;20181;-66
2021/03/17 08:13:13;;;;;;;;;;;;;;;2.09;79.30;98945.17;1646137;86;20269;-66
2021/03/17 08:15:43;;;;;;;;;;;;;;;2.13;79.23;98946.09;1650198;86;20281;-65
2021/03/17 08:18:33;;;;;;;;;;;;;;;2.13;79.09;98947.41;1648243;86;21285;-65
2021/03/17 08:21:04;;;;;;;;;;;;;;;2.05;79.06;98944.44;1650007;86;20240;-63
2021/03/17 08:23:53;;;;;;;;;;;;;;;1.95;79.24;98952.73;1646153;86;20541;-66
2021/03/17 08:26:24;;;;;;;;;;;;;;;1.85;79.69;98952.27;1644198;86;20671;-67
2021/03/17 08:28:55;;;;;;;;;;;;;;;1.83;79.94;98946.38;1647890;86;20231;-67
2021/03/17 08:31:42;;;;;;;;;;;;;;;1.81;80.35;98949.70;1647688;85;21222;-69
2021/03/17 08:34:19;;;;;;;;;;;;;;;1.83;80.30;98952.47;1647143;86;20193;-67
2021/03/17 08:36:54;;;;;;;;;;;;;;;1.92;80.28;98951.80;1637829;87;20184;-67
2021/03/17 08:39:34;;;;;;;;;;;;;;;1.93;80.38;98944.99;1640354;87;20173;-67
2021/03/17 08:42:14;;;;;;;;;;;;;;;1.96;80.30;98949.56;1640152;87;20327;-66
2021/03/17 08:44:45;;;;;;;;;;;;;;;1.93;80.13;98956.89;1642854;87;21226;-66
2021/03/17 08:47:29;;;;;;;;;;;;;;;1.92;80.29;98946.52;1638900;86;20248;-68
2021/03/17 08:50:19;;;;;;;;;;;;;;;1.97;80.04;98945.41;1642402;87;20243;-68
2021/03/17 08:52:49;;;;;;;;;;;;;;;1.90;80.06;98957.28;1678275;83;20227;-67
2021/03/17 08:55:20;;;;;;;;;;;;;;;1.83;80.29;98943.22;1689015;83;20180;-69
2021/03/17 08:57:59;;;;;;;;;;;;;;;1.80;80.55;98948.89;1689294;83;21254;-67
2021/03/17 09:00:47;;;;;;;;;;;;;;;1.83;80.66;98955.11;1684340;84;20598;-66
2021/03/17 09:03:35;;;;;;;;;;;;;;;1.87;80.65;98959.00;1691192;84;20145;-67
2021/03/17 09:06:25;;;;;;;;;;;;;;;1.90;80.48;98953.32;1664255;84;20166;-67
2021/03/17 09:09:01;;;;;;;;;;;;;;;1.93;80.40;98958.73;1644158;86;20229;-67
2021/03/17 09:11:32;;;;;;;;;;;;;;;1.90;80.55;98951.19;1642984;87;22424;-66
2021/03/17 09:14:03;;;;;;;;;;;;;;;1.91;80.46;98956.28;1640942;87;20164;-67
2021/03/17 09:16:33;;;;;;;;;;;;;;;1.95;80.44;98963.30;1637650;87;20239;-67
2021/03/17 09:19:09;;;;;;;;;;;;;;;1.97;80.36;98964.42;1640503;85;20758;-66
2021/03/17 09:21:39;;;;;;;;;;;;;;;1.95;80.53;98963.30;1621639;87;20320;-67
2021/03/17 09:24:28;;;;;;;;;;;;;;;1.92;80.79;98971.63;1636727;87;21711;-66
2021/03/17 09:27:01;;;;;;;;;;;;;;;1.95;80.58;98968.59;1639768;87;20610;-66
2021/03/17 09:29:29;;;;;;;;;;;;;;;1.96;80.37;98968.06;1636949;86;20282;-68
2021/03/17 09:31:56;;;;;;;;;;;;;;;1.91;80.42;98980.07;1640726;87;20612;-69
2021/03/17 09:34:29;;;;;;;;;;;;;;;1.89;80.53;98975.98;1635345;87;20312;-68
2021/03/17 09:37:06;;;;;;;;;;;;;;;1.90;80.86;98983.72;1639869;87;21294;-68
2021/03/17 09:39:34;;;;;;;;;;;;;;;1.92;81.00;98973.75;1638779;87;20332;-68
2021/03/17 09:42:02;;;;;;;;;;;;;;;2.04;81.09;98979.81;1636214;87;20529;-69
2021/03/17 09:44:31;;;;;;;;;;;;;;;2.14;80.43;98978.95;1640657;87;20308;-66
2021/03/17 09:46:59;;;;;;;;;;;;;;;2.20;80.42;98980.80;1639493;87;20248;-68
2021/03/17 09:49:27;;;;;;;;;;;;;;;2.23;80.08;98970.33;1637946;85;22647;-74
2021/03/17 09:51:56;;;;;;;;;;;;;;;2.24;79.85;98976.75;1640322;86;20265;-71
2021/03/17 09:54:25;;;;;;;;;;;;;;;2.21;79.86;98973.66;1644918;86;20194;-70
2021/03/17 09:56:55;;;;;;;;;;;;;;;2.20;79.90;98979.98;1649365;86;20731;-67
2021/03/17 09:59:26;;;;;;;;;;;;;;;2.17;80.05;98975.90;1647665;85;20595;-68
2021/03/17 10:02:01;;;;;;;;;;;;;;;2.19;80.27;98980.47;1652634;86;21946;-65
2021/03/17 10:04:42;;;;;;;;;;;;;;;2.24;80.22;98975.42;1644144;86;20157;-65
2021/03/17 10:07:08;;;;;;;;;;;;;;;2.28;80.24;98975.34;1646563;86;20250;-65
2021/03/17 10:09:36;;;;;;;;;;;;;;;2.31;80.24;98977.27;1645952;86;20251;-65
2021/03/17 10:12:10;;;;;;;;;;;;;;;2.27;80.12;98978.19;1644490;86;20283;-65
2021/03/17 10:14:40;;;;;;;;;;;;;;;2.21;80.12;98971.02;1641866;86;21223;-65
2021/03/17 10:17:08;;;;;;;;;;;;;;;2.18;80.15;98986.80;1647026;86;20308;-64
2021/03/17 10:19:37;;;;;;;;;;;;;;;2.14;80.24;98980.78;1650499;86;20266;-65
2021/03/17 10:22:04;;;;;;;;;;;;;;;2.10;80.53;98984.31;1654592;85;20255;-65
2021/03/17 10:24:38;;;;;;;;;;;;;;;2.06;80.58;98981.74;1654610;86;20235;-64
2021/03/17 10:27:09;;;;;;;;;;;;;;;2.06;80.61;98985.22;1654891;86;21382;-64
2021/03/17 10:29:37;;;;;;;;;;;;;;;2.07;80.73;98981.55;1652540;86;20299;-64
2021/03/17 10:32:06;;;;;;;;;;;;;;;2.12;80.73;98981.47;1654655;86;20319;-64
2021/03/17 10:34:34;;;;;;;;;;;;;;;2.15;80.55;98988.52;1654655;86;20716;-64
2021/03/17 10:37:02;;;;;;;;;;;;;;;2.14;80.64;98989.52;1654703;86;20276;-65
2021/03/17 10:39:32;;;;;;;;;;;;;;;2.13;80.86;98987.87;1652215;86;21237;-64
2021/03/17 10:41:59;;;;;;;;;;;;;;;2.16;80.59;98986.67;1654514;86;20268;-64
2021/03/17 10:44:29;;;;;;;;;;;;;;;2.18;80.45;98989.92;1654597;86;20164;-65
2021/03/17 10:47:02;;;;;;;;;;;;;;;2.15;80.45;98989.00;1654655;86;20173;-65
2021/03/17 10:49:31;;;;;;;;;;;;;;;2.16;80.52;98986.67;1654583;86;20271;-63
2021/03/17 10:52:02;;;;;;;;;;;;;;;2.14;80.52;98991.36;1652681;85;21297;-64
2021/03/17 10:54:35;;;;;;;;;;;;;;;2.17;80.54;98991.77;1656856;86;20238;-64
2021/03/17 10:57:05;;;;;;;;;;;;;;;2.25;80.26;98989.45;1653974;86;20265;-65
2021/03/17 10:59:37;;;;;;;;;;;;;;;2.27;80.10;98992.73;1656525;86;20248;-64
2021/03/17 11:02:25;;;;;;;;;;;;;;;2.27;80.15;98988.25;1656369;86;20240;-65
2021/03/17 11:05:15;;;;;;;;;;;;;;;2.36;80.20;98986.25;1654511;86;22358;-66
2021/03/17 11:07:55;;;;;;;;;;;;;;;2.44;79.59;98987.41;1655615;86;20259;-65
2021/03/17 11:10:51;;;;;;;;;;;;;;;2.41;79.53;98984.33;1653685;86;20273;-67
2021/03/17 11:13:22;;;;;;;;;;;;;;;2.36;79.63;98982.80;1655800;86;20620;-65
2021/03/17 11:15:57;;;;;;;;;;;;;;;2.38;79.69;98988.69;1656616;86;20256;-65
2021/03/17 11:18:39;;;;;;;;;;;;;;;2.34;79.81;98984.80;1656273;86;21358;-67
2021/03/17 11:21:08;;;;;;;;;;;;;;;2.26;79.98;98981.84;1655022;86;20780;-67
2021/03/17 11:23:38;;;;;;;;;;;;;;;2.19;80.21;98986.28;1656567;86;20292;-68
2021/03/17 11:26:08;;;;;;;;;;;;;;;2.17;80.79;98988.31;1656500;86;20261;-65
2021/03/17 11:28:39;;;;;;;;;;;;;;;2.24;80.72;98980.72;1656533;86;20244;-65
2021/03/17 11:31:09;;;;;;;;;;;;;;;2.32;80.54;98979.72;1656879;86;20527;-65
2021/03/17 11:33:36;;;;;;;;;;;;;;;2.37;80.42;98986.56;1656421;86;20339;-66
2021/03/17 11:36:06;;;;;;;;;;;;;;;2.38;80.56;98983.41;1656422;86;20280;-67
2021/03/17 11:38:34;;;;;;;;;;;;;;;2.39;80.00;98980.55;1656352;86;20252;-67
2021/03/17 11:41:02;;;;;;;;;;;;;;;2.36;80.11;98986.77;1656465;86;20291;-66
2021/03/17 11:43:31;;;;;;;;;;;;;;;2.30;80.32;98984.41;1656786;85;21448;-66
2021/03/17 11:46:00;;;;;;;;;;;;;;;2.26;80.59;98987.13;1656678;86;20690;-66
2021/03/17 11:48:28;;;;;;;;;;;;;;;2.26;80.44;98986.61;1656756;86;20176;-65
2021/03/17 11:50:56;;;;;;;;;;;;;;;2.28;80.66;98983.28;1656373;85;20245;-65
2021/03/17 11:53:24;;;;;;;;;;;;;;;2.36;80.53;98986.77;1657855;86;20261;-66
2021/03/17 11:55:51;;;;;;;;;;;;;;;2.39;80.47;98983.72;1656760;86;21396;-65
2021/03/17 11:58:19;;;;;;;;;;;;;;;2.41;80.27;98990.42;1656709;86;20271;-65
2021/03/17 12:00:47;;;;;;;;;;;;;;;2.39;80.47;98990.33;1650288;86;20245;-66
2021/03/17 12:03:17;;;;;;;;;;;;;;;2.40;80.38;98991.94;1649118;86;20244;-66
2021/03/17 12:05:45;;;;;;;;;;;;;;;2.38;80.43;98989.50;1650363;85;20273;-65
2021/03/17 12:08:13;;;;;;;;;;;;;;;2.40;80.82;98995.42;1650333;87;21052;-66
2021/03/17 12:10:41;;;;;;;;;;;;;;;2.44;80.38;98993.19;1650138;87;20236;-65
2021/03/17 12:13:09;;;;;;;;;;;;;;;2.43;80.51;98999.51;1650308;86;20263;-66
2021/03/17 12:15:37;;;;;;;;;;;;;;;2.47;80.71;98995.95;1649575;87;20252;-66
2021/03/17 12:18:05;;;;;;;;;;;;;;;2.60;80.87;98998.62;1650675;87;20272;-65
2021/03/17 12:20:34;;;;;;;;;;;;;;;2.78;80.72;99002.02;1650289;87;21383;-66
2021/03/17 12:23:03;;;;;;;;;;;;;;;2.91;79.79;99000.72;1648600;86;20318;-66
2021/03/17 12:25:31;;;;;;;;;;;;;;;2.92;79.28;99005.53;1650305;87;20508;-67
2021/03/17 12:27:58;;;;;;;;;;;;;;;2.91;79.57;99003.89;1646543;87;20596;-66
2021/03/17 12:30:26;;;;;;;;;;;;;;;3.00;79.48;99005.31;1650382;87;20323;-65
2021/03/17 12:32:55;;;;;;;;;;;;;;;3.09;79.55;99004.62;1650280;85;21345;-65
2021/03/17 12:35:23;;;;;;;;;;;;;;;3.21;79.09;99001.69;1650298;86;20664;-65
2021/03/17 12:37:52;;;;;;;;;;;;;;;3.30;78.86;99003.63;1650268;87;20240;-65
2021/03/17 12:40:24;;;;;;;;;;;;;;;3.38;78.87;99004.73;1650307;86;20236;-65
2021/03/17 12:42:52;;;;;;;;;;;;;;;3.44;78.13;99004.42;1649392;87;20311;-66
2021/03/17 12:45:23;;;;;;;;;;;;;;;3.47;78.03;98998.20;1650262;87;21433;-65
2021/03/17 12:47:51;;;;;;;;;;;;;;;3.55;77.92;99009.61;1650111;87;20513;-65
2021/03/17 12:50:19;;;;;;;;;;;;;;;3.61;77.60;98995.56;1650301;87;20263;-66
2021/03/17 12:52:47;;;;;;;;;;;;;;;3.64;77.30;98999.92;1647895;86;20296;-65
2021/03/17 12:55:15;;;;;;;;;;;;;;;3.65;77.06;99000.23;1652706;86;20521;-65
2021/03/17 12:57:42;;;;;;;;;;;;;;;3.63;76.82;99004.91;1652589;86;21374;-65
2021/03/17 13:00:17;;;;;;;;;;;;;;;3.57;76.84;99006.26;1652357;86;20240;-65
2021/03/17 13:02:45;;;;;;;;;;;;;;;3.49;76.91;99009.42;1651508;86;20251;-66
2021/03/17 13:05:14;;;;;;;;;;;;;;;3.49;77.21;99005.45;1652289;86;21309;-65
2021/03/17 13:07:42;;;;;;;;;;;;;;;3.50;77.02;99008.41;1652509;86;20323;-66
2021/03/17 13:10:14;;;;;;;;;;;;;;;3.47;77.21;99009.31;1650160;86;21226;-64
2021/03/17 13:12:44;;;;;;;;;;;;;;;3.48;77.31;99010.95;1650133;86;20296;-66
2021/03/17 13:15:13;;;;;;;;;;;;;;;3.54;77.34;99014.10;1652603;86;20311;-65
2021/03/17 13:17:41;;;;;;;;;;;;;;;3.60;77.19;99010.63;1649813;86;20240;-69
2021/03/17 13:20:09;;;;;;;;;;;;;;;3.66;77.24;99016.94;1650794;86;20510;-68
2021/03/17 13:22:37;;;;;;;;;;;;;;;3.65;77.02;99019.28;1652635;86;21289;-67
2021/03/17 13:25:06;;;;;;;;;;;;;;;3.60;77.17;99014.59;1649399;86;20295;-67
2021/03/17 13:27:34;;;;;;;;;;;;;;;3.63;77.23;99017.36;1652710;86;20306;-67
2021/03/17 13:30:04;;;;;;;;;;;;;;;3.68;77.30;99022.35;1652483;87;21291;-67
2021/03/17 13:32:31;;;;;;;;;;;;;;;3.80;77.24;99022.54;1652690;87;20633;-66
2021/03/17 13:34:59;;;;;;;;;;;;;;;3.91;77.18;99017.09;1652964;87;21224;-66
2021/03/17 13:37:27;;;;;;;;;;;;;;;4.02;76.86;99020.97;1652560;86;20261;-66
2021/03/17 13:39:55;;;;;;;;;;;;;;;4.09;76.53;99029.70;1652668;85;20318;-66
2021/03/17 13:42:22;;;;;;;;;;;;;;;4.12;76.04;99024.50;1652599;86;20299;-66
2021/03/17 13:44:50;;;;;;;;;;;;;;;4.14;76.06;99021.95;1652743;86;20514;-67
2021/03/17 13:47:17;;;;;;;;;;;;;;;4.21;75.98;99024.06;1652719;86;21175;-67
2021/03/17 13:49:45;;;;;;;;;;;;;;;4.29;75.37;99027.52;1651252;86;20244;-66
2021/03/17 13:52:12;;;;;;;;;;;;;;;4.25;74.80;99026.30;1652011;85;20253;-67
2021/03/17 13:54:42;;;;;;;;;;;;;;;4.14;74.85;99023.80;1655392;85;20576;-66
2021/03/17 13:57:09;;;;;;;;;;;;;;;4.11;75.01;99035.63;1656577;86;20244;-67
2021/03/17 13:59:37;;;;;;;;;;;;;;;4.13;74.88;99032.77;1656663;86;22132;-68
2021/03/17 14:02:06;;;;;;;;;;;;;;;4.15;74.65;99035.52;1656503;86;20311;-66
2021/03/17 14:04:34;;;;;;;;;;;;;;;4.16;74.58;99039.78;1656605;86;20242;-67
2021/03/17 14:07:01;;;;;;;;;;;;;;;4.20;74.56;99038.88;1656924;86;20283;-66
2021/03/17 14:09:29;;;;;;;;;;;;;;;4.25;74.55;99043.02;1656620;86;20240;-66
2021/03/17 14:11:57;;;;;;;;;;;;;;;4.30;74.29;99046.37;1656564;86;22258;-67
2021/03/17 14:14:24;;;;;;;;;;;;;;;4.29;74.09;99038.94;1652371;86;20292;-66
2021/03/17 14:16:52;;;;;;;;;;;;;;;4.30;74.25;99043.22;1656495;86;20324;-66
2021/03/17 14:19:19;;;;;;;;;;;;;;;4.36;74.21;99036.27;1656907;86;20267;-66
2021/03/17 14:21:47;;;;;;;;;;;;;;;4.39;73.90;99040.63;1642887;87;20153;-69
2021/03/17 14:24:15;;;;;;;;;;;;;;;4.34;73.74;99041.79;1671418;85;21324;-66
2021/03/17 14:26:42;;;;;;;;;;;;;;;4.30;73.73;99047.20;1671510;85;20324;-67
2021/03/17 14:29:10;;;;;;;;;;;;;;;4.32;73.81;99043.81;1671415;85;20317;-67
2021/03/17 14:31:38;;;;;;;;;;;;;;;4.28;73.46;99046.58;1671370;85;20251;-67
2021/03/17 14:34:07;;;;;;;;;;;;;;;4.16;73.83;99043.76;1671534;85;20234;-67
2021/03/17 14:36:36;;;;;;;;;;;;;;;4.17;74.20;99049.38;1670711;86;20809;-67
2021/03/17 14:39:04;;;;;;;;;;;;;;;4.26;74.47;99046.51;1671471;86;20144;-66
2021/03/17 14:41:32;;;;;;;;;;;;;;;4.33;74.27;99047.30;1671403;86;20203;-67
2021/03/17 14:43:59;;;;;;;;;;;;;;;4.35;74.33;99042.59;1671507;86;20703;-67
2021/03/17 14:46:33;;;;;;;;;;;;;;;4.41;74.35;99047.05;1669130;86;20239;-65